Time;durP1;ratioP1;P1;durP2;ratioP2;P2;SDS_P1;SDS_P2;PMS_P1;PMS_P2;Temp;Humidity;BMP_temperature;BMP_pressure;BME280_temperature;BME280_humidity;BME280_pressure;Samples;Min_cycle;Max_cycle;Signal;HPM_P1;HPM_P2
2023/04/30 00:02:22;;;;;;;10.43;8.55;;;;;;;9.72;70.18;102067.94;3584976;40;20058;-68
2023/04/30 00:04:47;;;;;;;13.90;8.73;;;;;;;9.70;70.34;102069.81;3593185;39;20062;-67
2023/04/30 00:07:13;;;;;;;12.00;8.90;;;;;;;9.57;69.67;102049.75;3594426;39;20055;-68
2023/04/30 00:09:39;;;;;;;15.43;8.98;;;;;;;9.64;70.03;102062.88;3597305;39;20429;-68
2023/04/30 00:12:05;;;;;;;12.73;9.00;;;;;;;9.62;70.25;102066.56;3593538;39;20063;-68
2023/04/30 00:14:30;;;;;;;11.98;7.80;;;;;;;9.61;70.70;102070.16;3594725;39;20059;-68
2023/04/30 00:16:56;;;;;;;11.13;8.73;;;;;;;9.59;71.01;102067.53;3594619;39;20095;-68
2023/04/30 00:19:22;;;;;;;11.60;9.00;;;;;;;8.70;70.66;101923.31;3595971;39;20054;-68
2023/04/30 00:21:47;;;;;;;11.38;8.88;;;;;;;9.56;71.35;102069.47;3593072;39;20051;-68
2023/04/30 00:24:13;;;;;;;10.95;8.45;;;;;;;9.53;71.49;102068.63;3596208;39;20054;-68
2023/04/30 00:26:39;;;;;;;11.30;8.20;;;;;;;9.51;71.87;102077.69;3593445;39;20086;-68
2023/04/30 00:29:05;;;;;;;12.05;8.55;;;;;;;9.49;71.75;102079.56;3595410;39;20091;-68
2023/04/30 00:31:31;;;;;;;13.38;8.65;;;;;;;9.45;71.68;102076.13;3595218;39;20075;-68
2023/04/30 00:33:56;;;;;;;12.30;9.13;;;;;;;9.43;71.94;102083.34;3593145;39;20306;-68
2023/04/30 00:36:22;;;;;;;11.80;9.02;;;;;;;9.41;72.81;102085.19;3595500;39;20048;-68
2023/04/30 00:38:48;;;;;;;13.45;8.85;;;;;;;9.37;73.21;102083.56;3593091;39;20054;-68
2023/04/30 00:41:13;;;;;;;16.25;8.95;;;;;;;8.73;72.78;101967.91;3593433;39;20082;-68
2023/04/30 00:43:39;;;;;;;13.75;9.07;;;;;;;9.35;73.31;102080.06;3593376;39;20063;-67
2023/04/30 00:46:05;;;;;;;13.63;9.32;;;;;;;9.33;73.30;102075.69;3593758;39;20094;-68
2023/04/30 00:48:31;;;;;;;14.40;9.13;;;;;;;9.23;73.29;102069.78;3593122;39;20070;-66
2023/04/30 00:50:56;;;;;;;12.30;9.10;;;;;;;9.29;73.32;102081.19;3597634;39;20059;-66
2023/04/30 00:53:22;;;;;;;12.13;8.93;;;;;;;9.26;73.17;102075.91;3586398;39;20059;-67
2023/04/30 00:55:48;;;;;;;15.95;9.43;;;;;;;9.25;74.08;102081.31;3592962;39;20059;-67
2023/04/30 00:58:14;;;;;;;11.98;9.25;;;;;;;9.16;73.87;102069.13;3597041;39;20052;-67
2023/04/30 01:00:46;;;;;;;12.35;9.30;;;;;;;8.60;73.89;101976.38;3592981;39;20303;-67
2023/04/30 01:03:13;;;;;;;13.27;8.65;;;;;;;9.09;74.91;102064.91;3593414;39;20052;-67
2023/04/30 01:05:38;;;;;;;13.02;9.18;;;;;;;8.41;74.97;101944.91;3593271;39;20059;-66
2023/04/30 01:08:05;;;;;;;11.60;9.38;;;;;;;9.13;74.98;102071.03;3595546;39;20064;-67
2023/04/30 01:10:47;;;;;;;16.33;9.68;;;;;;;9.05;75.08;102055.22;3594235;39;20060;-68
2023/04/30 01:13:38;;;;;;;13.20;9.18;;;;;;;9.03;75.09;102054.41;3594422;39;20385;-67
2023/04/30 01:16:22;;;;;;;14.27;9.68;;;;;;;9.05;75.47;102066.81;3594606;39;20113;-67
2023/04/30 01:18:53;;;;;;;;;;;;;;;9.01;76.08;102062.50;3583541;39;20062;-67
2023/04/30 01:21:20;;;;;;;11.52;9.32;;;;;;;9.01;76.21;102067.00;3583053;39;19931;-67
2023/04/30 01:24:25;;;;;;;12.80;9.85;;;;;;;8.99;75.42;102066.16;3592025;39;20056;-67
2023/04/30 01:27:24;;;;;;;13.60;9.63;;;;;;;8.96;76.67;102067.16;3592779;39;20110;-67
2023/04/30 01:29:54;;;;;;;13.48;9.85;;;;;;;8.95;76.26;102073.44;3592952;39;20048;-67
2023/04/30 01:32:20;;;;;;;12.70;9.30;;;;;;;8.95;76.25;102060.03;3593309;39;20724;-67
2023/04/30 01:34:45;;;;;;;12.75;9.43;;;;;;;8.95;76.46;102070.78;3592481;39;20044;-67
2023/04/30 01:37:34;;;;;;;11.70;9.50;;;;;;;8.94;76.74;102074.34;3595222;39;20059;-67
2023/04/30 01:40:43;;;;;;;13.15;9.88;;;;;;;8.91;75.92;102069.13;3593235;39;20095;-68
2023/04/30 01:43:22;;;;;;;13.75;9.68;;;;;;;8.22;76.13;101950.00;3593022;39;20087;-68
2023/04/30 01:46:30;;;;;;;14.27;9.70;;;;;;;8.86;75.87;102065.72;3592225;39;20055;-67
2023/04/30 01:49:41;;;;;;;13.02;9.50;;;;;;;8.81;76.67;102067.69;3587927;39;20052;-68
2023/04/30 01:52:30;;;;;;;13.35;8.50;;;;;;;7.63;76.25;101874.28;3597534;39;20120;-69
2023/04/30 01:55:17;;;;;;;12.10;9.77;;;;;;;8.76;76.72;102064.31;3591980;39;20059;-68
2023/04/30 01:57:57;;;;;;;12.95;9.50;;;;;;;8.73;76.42;102067.97;3593962;39;20052;-68
2023/04/30 02:00:24;;;;;;;14.32;10.73;;;;;;;8.71;76.49;102068.94;3594701;39;20048;-68
2023/04/30 02:02:50;;;;;;;11.40;9.77;;;;;;;8.68;77.19;102066.34;3594194;39;20099;-68
2023/04/30 02:05:16;;;;;;;13.63;10.90;;;;;;;8.67;77.71;102072.66;3597087;39;20408;-68
2023/04/30 02:07:46;;;;;;;13.25;10.48;;;;;;;8.63;77.11;102077.25;3597971;39;20282;-69
2023/04/30 02:10:12;;;;;;;14.95;10.05;;;;;;;8.48;77.56;102054.50;3594524;39;20056;-68
2023/04/30 02:12:39;;;;;;;13.18;10.52;;;;;;;8.57;78.00;102082.81;3594409;39;20044;-68
2023/04/30 02:15:06;;;;;;;17.35;10.77;;;;;;;8.54;77.53;102078.41;3594985;39;20060;-69
2023/04/30 02:17:32;;;;;;;12.57;10.38;;;;;;;8.50;78.26;102076.78;3586360;39;20483;-69
2023/04/30 02:19:59;;;;;;;16.33;10.30;;;;;;;8.49;78.38;102072.31;3595295;39;20151;-69
2023/04/30 02:22:25;;;;;;;19.15;11.40;;;;;;;8.49;78.18;102082.16;3594663;39;20144;-68
2023/04/30 02:24:54;;;;;;;14.07;10.93;;;;;;;8.44;77.77;102074.28;3594391;39;20375;-68
2023/04/30 02:27:22;;;;;;;16.70;11.18;;;;;;;8.36;77.79;102076.31;3590008;39;20048;-69
2023/04/30 02:29:49;;;;;;;13.43;10.50;;;;;;;7.75;78.38;101973.84;3595690;39;20632;-68
2023/04/30 02:32:15;;;;;;;15.80;10.52;;;;;;;8.37;78.32;102078.03;3597503;39;20078;-68
2023/04/30 02:34:40;;;;;;;13.20;10.60;;;;;;;7.15;78.38;101874.91;3589728;39;20458;-68
2023/04/30 02:37:07;;;;;;;13.45;10.25;;;;;;;8.34;78.22;102080.81;3597668;39;20095;-68
2023/04/30 02:39:33;;;;;;;13.75;10.70;;;;;;;8.33;78.58;102076.41;3597740;39;20082;-68
2023/04/30 02:41:58;;;;;;;16.25;11.20;;;;;;;8.24;78.84;102064.19;3594101;39;20493;-69
2023/04/30 02:44:24;;;;;;;15.07;11.20;;;;;;;8.28;79.02;102073.88;3595632;39;20074;-68
2023/04/30 02:46:50;;;;;;;18.42;11.32;;;;;;;8.25;78.95;102074.00;3596819;39;20101;-66
2023/04/30 02:49:16;;;;;;;16.15;11.68;;;;;;;8.19;79.79;102062.59;3596501;39;20055;-69
2023/04/30 02:51:42;;;;;;;15.80;11.48;;;;;;;8.19;79.56;102067.94;3597008;39;20055;-68
2023/04/30 02:54:07;;;;;;;15.10;11.40;;;;;;;8.19;79.66;102062.59;3595032;39;20296;-69
2023/04/30 02:56:33;;;;;;;15.55;12.27;;;;;;;7.40;79.64;101941.03;3594130;39;20054;-69
2023/04/30 02:58:59;;;;;;;14.63;11.25;;;;;;;8.14;79.81;102068.94;3594162;39;20060;-67
2023/04/30 03:01:25;;;;;;;14.55;11.50;;;;;;;7.99;79.68;102045.38;3596867;39;20055;-67
2023/04/30 03:03:51;;;;;;;15.73;11.48;;;;;;;8.11;79.29;102066.38;3593773;39;20255;-67
2023/04/30 03:06:18;;;;;;;17.60;11.95;;;;;;;8.10;79.88;102074.47;3594090;39;20420;-67
2023/04/30 03:08:43;;;;;;;15.43;11.27;;;;;;;8.02;79.75;102055.94;3588084;39;20044;-67
2023/04/30 03:11:09;;;;;;;14.40;11.88;;;;;;;8.07;80.16;102064.72;3594017;39;20059;-67
2023/04/30 03:13:35;;;;;;;15.50;11.75;;;;;;;8.01;80.09;102048.84;3593953;39;20371;-67
2023/04/30 03:16:05;;;;;;;15.70;11.95;;;;;;;7.36;79.67;101937.59;3594474;39;20086;-67
2023/04/30 03:18:31;;;;;;;16.05;12.05;;;;;;;8.03;80.22;102055.03;3591079;39;20056;-67
2023/04/30 03:20:57;;;;;;;17.00;12.02;;;;;;;7.28;79.71;101928.91;3593822;39;20115;-67
2023/04/30 03:23:27;;;;;;;16.92;11.60;;;;;;;7.99;80.29;102064.09;3596728;39;20048;-67
2023/04/30 03:25:53;;;;;;;16.23;12.10;;;;;;;7.98;79.90;102056.09;3594478;39;20077;-67
2023/04/30 03:28:18;;;;;;;16.92;12.27;;;;;;;7.98;79.84;102059.66;3593443;39;20052;-67
2023/04/30 03:30:44;;;;;;;16.25;12.10;;;;;;;7.97;79.76;102052.56;3599406;39;20058;-67
2023/04/30 03:33:09;;;;;;;16.20;11.85;;;;;;;7.95;79.96;102054.38;3594807;39;20323;-67
2023/04/30 03:35:35;;;;;;;15.68;12.13;;;;;;;7.94;79.86;102052.66;3597242;39;20059;-67
2023/04/30 03:38:01;;;;;;;17.35;11.70;;;;;;;7.92;79.68;102065.19;3593610;39;20067;-67
2023/04/30 03:40:27;;;;;;;16.42;12.13;;;;;;;7.91;79.28;102055.41;3585112;39;20050;-67
2023/04/30 03:42:54;;;;;;;17.08;12.23;;;;;;;7.87;79.56;102062.69;3593602;39;20095;-67
2023/04/30 03:45:20;;;;;;;15.90;11.88;;;;;;;7.82;79.91;102061.94;3594057;39;20071;-67
2023/04/30 03:47:46;;;;;;;16.27;12.25;;;;;;;7.81;79.95;102072.69;3593415;39;20048;-67
2023/04/30 03:50:12;;;;;;;16.40;11.68;;;;;;;7.73;79.92;102058.66;3597509;39;20066;-67
2023/04/30 03:52:38;;;;;;;19.75;12.70;;;;;;;7.71;80.58;102065.84;3588256;39;20048;-68
2023/04/30 03:55:06;;;;;;;18.08;12.30;;;;;;;7.74;80.25;102076.44;3593554;39;20044;-68
2023/04/30 03:57:32;;;;;;;16.15;13.40;;;;;;;7.70;80.82;102066.78;3596665;39;20112;-68
2023/04/30 03:59:58;;;;;;;16.90;11.73;;;;;;;7.66;80.99;102069.53;3593499;39;20070;-68
2023/04/30 04:02:24;;;;;;;18.60;12.55;;;;;;;7.65;80.51;102070.47;3593280;39;20610;-67
2023/04/30 04:04:51;;;;;;;18.83;12.27;;;;;;;7.62;80.80;102078.59;3593123;39;20059;-67
2023/04/30 04:07:17;;;;;;;18.88;13.18;;;;;;;7.61;81.08;102076.84;3595472;39;20051;-67
2023/04/30 04:09:43;;;;;;;17.15;12.32;;;;;;;7.57;81.01;102079.63;3593856;39;20055;-67
2023/04/30 04:12:09;;;;;;;17.25;12.77;;;;;;;7.53;80.77;102084.22;3592007;39;20051;-68
2023/04/30 04:14:35;;;;;;;15.60;12.55;;;;;;;7.47;81.20;102079.03;3593358;39;20084;-68
2023/04/30 04:17:01;;;;;;;15.02;12.77;;;;;;;7.50;81.47;102078.94;3593375;39;20064;-69
2023/04/30 04:19:27;;;;;;;17.23;14.05;;;;;;;7.49;81.85;102077.19;3593753;39;20062;-68
2023/04/30 04:21:52;;;;;;;19.30;13.93;;;;;;;7.51;81.60;102079.81;3596354;39;20059;-68
2023/04/30 04:24:18;;;;;;;16.52;13.65;;;;;;;7.35;82.01;102064.19;3595437;39;20078;-68
2023/04/30 04:26:44;;;;;;;18.02;13.63;;;;;;;7.53;81.80;102092.22;3593254;39;20406;-68
2023/04/30 04:29:11;;;;;;;17.20;13.15;;;;;;;7.48;82.28;102075.44;3596453;39;20095;-68
2023/04/30 04:31:37;;;;;;;18.52;13.45;;;;;;;7.56;82.15;102085.94;3595476;39;20047;-68
2023/04/30 04:34:04;;;;;;;18.52;14.75;;;;;;;7.56;81.65;102094.81;3593385;39;20048;-68
2023/04/30 04:36:30;;;;;;;17.90;14.05;;;;;;;7.59;81.62;102088.50;3593472;39;20052;-68
2023/04/30 04:39:00;;;;;;;19.38;14.77;;;;;;;7.58;81.77;102087.63;3593732;39;20299;-67
2023/04/30 04:41:31;;;;;;;17.90;14.32;;;;;;;7.48;81.89;102067.41;3595058;39;20070;-68
2023/04/30 04:44:00;;;;;;;17.48;14.40;;;;;;;7.61;82.05;102094.69;3596298;39;20066;-68
2023/04/30 04:46:27;;;;;;;19.02;14.13;;;;;;;7.65;82.10;102099.91;3593132;39;20051;-68
2023/04/30 04:48:53;;;;;;;19.92;14.65;;;;;;;7.67;82.21;102098.06;3594805;39;20059;-68
2023/04/30 04:51:19;;;;;;;17.02;13.52;;;;;;;7.70;82.24;102101.56;3593455;39;20413;-68
2023/04/30 04:53:45;;;;;;;19.13;14.82;;;;;;;7.01;81.77;101978.75;3595513;39;20054;-67
2023/04/30 04:56:10;;;;;;;22.42;14.77;;;;;;;7.76;81.99;102096.03;3593194;39;20327;-67
2023/04/30 04:58:36;;;;;;;20.27;15.13;;;;;;;7.36;81.99;102008.94;3596558;39;20051;-68
2023/04/30 05:01:03;;;;;;;18.98;14.50;;;;;;;7.87;81.63;102072.50;3595497;39;20051;-68
2023/04/30 05:03:31;;;;;;;19.58;14.18;;;;;;;8.11;80.53;102098.50;3596472;39;20044;-68
2023/04/30 05:05:57;;;;;;;19.60;14.88;;;;;;;8.14;80.32;102090.38;3593380;39;20059;-68
2023/04/30 05:08:23;;;;;;;17.25;13.88;;;;;;;8.27;80.86;102092.66;3593318;39;20122;-68
2023/04/30 05:10:48;;;;;;;16.67;13.23;;;;;;;8.37;80.11;102091.44;3592855;39;20052;-68
2023/04/30 05:13:14;;;;;;;18.15;14.70;;;;;;;8.50;79.88;102092.84;3596427;39;20068;-68
2023/04/30 05:15:39;;;;;;;16.25;14.02;;;;;;;8.64;80.13;102103.09;3593265;39;20054;-68
2023/04/30 05:18:05;;;;;;;17.42;13.23;;;;;;;8.82;79.71;102097.13;3595863;39;20060;-69
2023/04/30 05:20:31;;;;;;;17.15;13.70;;;;;;;9.02;78.30;102103.63;3595593;39;20425;-68
2023/04/30 05:22:56;;;;;;;16.30;12.80;;;;;;;9.18;77.44;102095.91;3593915;39;20495;-68
2023/04/30 05:25:22;;;;;;;16.45;13.05;;;;;;;9.23;77.47;102091.25;3600232;39;20052;-68
2023/04/30 05:27:47;;;;;;;14.43;12.10;;;;;;;9.34;76.71;102093.53;3594931;39;20048;-66
2023/04/30 05:30:14;;;;;;;14.18;12.10;;;;;;;9.33;76.67;102090.00;3594812;39;20048;-67
2023/04/30 05:32:41;;;;;;;17.05;12.68;;;;;;;9.30;76.97;102090.09;3598094;39;20047;-67
2023/04/30 05:35:07;;;;;;;15.43;12.45;;;;;;;9.27;77.69;102092.88;3595277;39;20059;-67
2023/04/30 05:37:33;;;;;;;15.32;12.38;;;;;;;8.65;77.38;101991.41;3594899;39;20052;-67
2023/04/30 05:39:59;;;;;;;15.45;11.82;;;;;;;9.29;77.79;102104.44;3594826;39;20138;-67
2023/04/30 05:42:24;;;;;;;15.32;12.75;;;;;;;9.30;77.63;102104.38;3593247;39;20103;-67
2023/04/30 05:44:50;;;;;;;16.25;12.05;;;;;;;9.24;77.84;102098.38;3594723;39;20413;-67
2023/04/30 05:47:16;;;;;;;15.63;12.05;;;;;;;8.79;77.45;102026.66;3590376;39;20064;-67
2023/04/30 05:49:41;;;;;;;15.48;12.15;;;;;;;9.36;78.10;102102.44;3596511;39;20054;-67
2023/04/30 05:52:07;;;;;;;15.27;11.65;;;;;;;9.37;77.08;102105.03;3594275;39;20044;-66
2023/04/30 05:54:33;;;;;;;13.05;10.98;;;;;;;8.82;77.17;102015.81;3594694;39;20056;-67
2023/04/30 05:56:58;;;;;;;15.98;11.52;;;;;;;9.44;76.95;102106.56;3598273;39;20062;-68
2023/04/30 05:59:24;;;;;;;14.13;11.98;;;;;;;9.50;77.48;102111.69;3594517;39;20063;-67
2023/04/30 06:01:51;;;;;;;13.70;11.98;;;;;;;8.96;77.35;102021.56;3596166;39;20054;-67
2023/04/30 06:04:16;;;;;;;15.05;11.93;;;;;;;9.57;77.20;102112.34;3598156;39;20110;-67
2023/04/30 06:06:42;;;;;;;14.27;11.85;;;;;;;9.62;76.95;102099.66;3594689;39;20386;-68
2023/04/30 06:09:09;;;;;;;13.35;11.43;;;;;;;9.64;76.88;102103.16;3594666;39;20051;-68
2023/04/30 06:11:36;;;;;;;13.18;10.20;;;;;;;9.70;76.38;102091.28;3594266;39;20117;-68
2023/04/30 06:14:03;;;;;;;11.27;9.93;;;;;;;9.69;75.58;102078.81;3595576;39;20127;-67
2023/04/30 06:16:29;;;;;;;12.80;9.90;;;;;;;9.82;75.54;102089.97;3594610;39;20394;-68
2023/04/30 06:18:55;;;;;;;12.95;10.23;;;;;;;9.90;75.62;102087.88;3594410;39;20369;-68
2023/04/30 06:21:24;;;;;;;11.65;10.00;;;;;;;10.00;75.99;102090.13;3594271;39;20055;-68
2023/04/30 06:23:51;;;;;;;10.52;9.43;;;;;;;10.14;75.42;102086.00;3595439;39;20087;-68
2023/04/30 06:26:18;;;;;;;10.82;9.52;;;;;;;9.87;74.76;102024.38;3594193;39;20062;-67
2023/04/30 06:28:44;;;;;;;10.88;9.30;;;;;;;10.36;73.32;102091.44;3594576;39;20048;-68
2023/04/30 06:31:09;;;;;;;12.30;10.18;;;;;;;9.75;73.97;101963.13;3595074;39;20059;-68
2023/04/30 06:33:35;;;;;;;11.27;9.73;;;;;;;10.63;73.28;102089.44;3597472;39;20087;-68
2023/04/30 06:36:00;;;;;;;12.63;9.48;;;;;;;10.84;72.46;102093.00;3598786;39;20052;-68
2023/04/30 06:38:26;;;;;;;12.95;9.35;;;;;;;11.06;72.12;102092.97;3598524;39;20074;-68
2023/04/30 06:40:52;;;;;;;10.35;8.90;;;;;;;11.25;70.89;102088.50;3599406;39;20050;-68
2023/04/30 06:43:17;;;;;;;14.82;9.30;;;;;;;11.54;70.22;102091.72;3596285;39;20051;-68
2023/04/30 06:45:43;;;;;;;10.85;9.57;;;;;;;11.77;70.38;102091.53;3596680;39;20055;-68
2023/04/30 06:48:09;;;;;;;12.10;9.05;;;;;;;12.05;68.98;102096.53;3594637;39;20055;-68
2023/04/30 06:50:42;;;;;;;12.88;9.43;;;;;;;12.27;68.04;102093.69;3596678;39;20055;-68
2023/04/30 06:53:08;;;;;;;;;;;;;;;11.85;68.17;101975.34;3597307;39;20410;-68
2023/04/30 06:55:34;;;;;;;9.63;8.23;;;;;;;12.81;65.75;102103.59;3596819;39;19955;-68
2023/04/30 06:57:59;;;;;;;11.30;8.75;;;;;;;12.30;63.98;101988.38;3600002;39;20059;-68
2023/04/30 07:00:25;;;;;;;10.93;9.18;;;;;;;13.12;63.92;102105.63;3595788;39;20078;-68
2023/04/30 07:02:51;;;;;;;10.55;8.68;;;;;;;13.08;62.26;102094.09;3593921;39;20055;-68
2023/04/30 07:05:17;;;;;;;14.90;9.10;;;;;;;13.22;63.56;102107.78;3594400;39;20047;-68
2023/04/30 07:07:43;;;;;;;11.23;9.02;;;;;;;12.65;62.72;101988.38;3595393;39;20376;-68
2023/04/30 07:10:09;;;;;;;12.82;8.95;;;;;;;13.51;62.48;102107.19;3593695;39;20052;-68
2023/04/30 07:12:34;;;;;;;10.25;8.20;;;;;;;13.76;63.06;102098.63;3593914;39;20087;-66
2023/04/30 07:15:00;;;;;;;10.77;8.85;;;;;;;13.92;62.07;102096.81;3594633;39;20427;-68
2023/04/30 07:17:25;;;;;;;11.13;8.35;;;;;;;14.13;61.75;102106.44;3593606;39;20074;-68
2023/04/30 07:19:51;;;;;;;13.05;8.65;;;;;;;14.31;60.87;102101.81;3593729;39;20051;-68
2023/04/30 07:22:17;;;;;;;14.05;8.40;;;;;;;14.42;60.52;102103.03;3594925;39;20055;-68
2023/04/30 07:24:42;;;;;;;10.55;8.23;;;;;;;14.58;60.18;102099.38;3592733;39;20058;-65
2023/04/30 07:27:08;;;;;;;9.68;8.05;;;;;;;14.67;59.63;102094.41;3593495;39;20059;-68
2023/04/30 07:29:34;;;;;;;9.20;8.05;;;;;;;14.87;59.39;102099.50;3595743;39;20089;-66
2023/04/30 07:32:00;;;;;;;10.65;8.45;;;;;;;15.04;58.08;102088.53;3594243;39;20052;-67
2023/04/30 07:34:26;;;;;;;12.10;8.48;;;;;;;15.25;57.92;102093.59;3594043;39;20353;-67
2023/04/30 07:36:52;;;;;;;9.30;8.27;;;;;;;15.48;57.63;102097.63;3594701;39;20044;-66
2023/04/30 07:39:17;;;;;;;10.23;7.70;;;;;;;15.64;56.08;102094.81;3594782;39;20082;-68
2023/04/30 07:41:43;;;;;;;9.50;8.10;;;;;;;15.18;56.68;102019.09;3594351;39;20051;-67
2023/04/30 07:44:10;;;;;;;10.65;8.35;;;;;;;15.77;56.45;102093.13;3594712;39;20074;-67
2023/04/30 07:46:36;;;;;;;13.80;7.97;;;;;;;15.93;54.72;102091.16;3593278;39;20169;-67
2023/04/30 07:49:02;;;;;;;9.00;7.85;;;;;;;15.37;55.32;101976.34;3595188;39;20051;-67
2023/04/30 07:51:28;;;;;;;10.25;7.60;;;;;;;16.05;54.17;102091.31;3594117;39;20389;-67
2023/04/30 07:53:54;;;;;;;12.35;7.65;;;;;;;16.17;54.14;102096.81;3593927;39;20056;-67
2023/04/30 07:56:20;;;;;;;10.82;7.95;;;;;;;16.29;54.18;102086.16;3593556;39;20055;-67
2023/04/30 07:58:46;;;;;;;10.68;8.43;;;;;;;16.41;54.52;102088.91;3593700;39;20059;-67
2023/04/30 08:01:12;;;;;;;9.80;7.90;;;;;;;16.51;53.84;102089.19;3593857;39;20059;-67
2023/04/30 08:03:37;;;;;;;10.20;8.50;;;;;;;16.60;51.87;102094.00;3595516;39;20051;-68
2023/04/30 08:06:05;;;;;;;8.80;7.90;;;;;;;16.57;53.41;102085.19;3594144;39;20088;-67
2023/04/30 08:08:30;;;;;;;10.20;8.27;;;;;;;16.75;53.63;102092.13;3593717;39;20054;-67
2023/04/30 08:10:56;;;;;;;10.82;7.85;;;;;;;17.00;52.77;102101.31;3594192;39;20051;-67
2023/04/30 08:13:22;;;;;;;8.45;7.47;;;;;;;17.23;51.71;102095.16;3592064;39;20067;-67
2023/04/30 08:15:47;;;;;;;9.00;8.02;;;;;;;17.33;52.37;102095.38;3597570;39;20067;-67
2023/04/30 08:18:13;;;;;;;9.23;7.15;;;;;;;17.51;50.72;102098.66;3593442;39;20379;-67
2023/04/30 08:20:39;;;;;;;7.82;7.00;;;;;;;17.49;51.00;102096.03;3594418;39;20367;-67
2023/04/30 08:23:04;;;;;;;10.98;7.70;;;;;;;17.66;49.88;102108.44;3594316;39;20095;-68
2023/04/30 08:25:31;;;;;;;8.25;6.47;;;;;;;17.27;49.27;102001.56;3596596;39;20382;-68
2023/04/30 08:27:56;;;;;;;8.85;6.35;;;;;;;17.52;49.02;102021.56;3594491;39;20084;-68
2023/04/30 08:30:22;;;;;;;10.52;6.63;;;;;;;18.04;48.39;102086.66;3593370;39;20094;-68
2023/04/30 08:32:48;;;;;;;7.70;6.55;;;;;;;17.83;48.30;102018.38;3593730;39;20413;-67
2023/04/30 08:35:15;;;;;;;7.63;6.50;;;;;;;18.29;48.02;102085.72;3593998;39;20051;-68
2023/04/30 08:37:41;;;;;;;7.50;6.07;;;;;;;18.30;47.63;102084.75;3593663;39;20047;-68
2023/04/30 08:40:08;;;;;;;6.65;6.05;;;;;;;18.46;47.30;102092.63;3593054;39;20055;-67
2023/04/30 08:42:40;;;;;;;6.68;5.97;;;;;;;18.50;47.04;102096.00;3592490;39;20059;-68
2023/04/30 08:45:10;;;;;;;7.95;6.70;;;;;;;18.06;45.95;102007.63;3593075;39;20048;-67
2023/04/30 08:47:37;;;;;;;6.70;6.00;;;;;;;18.85;46.99;102089.75;3595486;39;20052;-67
2023/04/30 08:50:04;;;;;;;7.68;5.30;;;;;;;19.04;44.61;102079.16;3593260;39;20375;-67
2023/04/30 08:52:34;;;;;;;6.10;5.50;;;;;;;18.73;43.71;102012.56;3594715;39;20121;-66
2023/04/30 08:55:01;;;;;;;7.43;5.15;;;;;;;19.27;43.78;102081.94;3593321;39;20371;-66
2023/04/30 08:57:26;;;;;;;7.53;5.88;;;;;;;19.43;44.40;102090.66;3595546;39;20048;-66
2023/04/30 08:59:53;;;;;;;7.40;5.63;;;;;;;19.47;43.25;102081.22;3593033;39;20375;-67
2023/04/30 09:02:19;;;;;;;6.32;5.72;;;;;;;19.62;44.38;102080.00;3593731;39;20325;-67
2023/04/30 09:04:45;;;;;;;5.95;5.35;;;;;;;19.81;44.38;102082.16;3585338;39;20044;-67
2023/04/30 09:07:13;;;;;;;7.20;6.47;;;;;;;19.86;42.91;102081.81;3592552;39;20088;-68
2023/04/30 09:09:39;;;;;;;8.35;6.38;;;;;;;19.90;42.86;102072.38;3594035;39;20121;-66
2023/04/30 09:12:18;;;;;;;14.43;7.03;;;;;;;19.52;42.31;102008.09;3592595;39;20387;-66
2023/04/30 09:15:04;;;;;;;9.73;6.38;;;;;;;;;;3595595;39;20049;-66
2023/04/30 09:17:31;;;;;;;7.03;6.10;;;;;;;19.96;42.90;102071.88;3591787;39;20056;-67
2023/04/30 09:20:12;;;;;;;7.45;6.20;;;;;;;20.01;43.03;102072.34;3593316;39;20044;-67
2023/04/30 09:22:41;;;;;;;10.02;7.47;;;;;;;20.14;43.39;102064.03;3593268;39;20366;-67
2023/04/30 09:25:10;;;;;;;9.15;7.25;;;;;;;19.76;43.24;101955.28;3592861;39;20056;-67
2023/04/30 09:27:35;;;;;;;7.72;6.80;;;;;;;20.61;43.42;102079.22;3583928;40;20052;-67
2023/04/30 09:30:01;;;;;;;7.75;6.40;;;;;;;20.21;42.49;101977.00;3594947;39;20090;-67
2023/04/30 09:32:27;;;;;;;7.45;6.22;;;;;;;20.28;41.49;101961.84;3592747;39;20064;-67
2023/04/30 09:34:54;;;;;;;6.55;5.93;;;;;;;20.99;41.74;102061.38;3593049;39;20379;-67
2023/04/30 09:37:20;;;;;;;6.43;5.13;;;;;;;21.05;39.77;102066.31;3592900;39;20066;-67
2023/04/30 09:39:52;;;;;;;6.13;5.53;;;;;;;20.13;40.22;101890.28;3598127;39;20047;-69
2023/04/30 09:42:19;;;;;;;10.23;6.60;;;;;;;21.28;39.98;102075.25;3595229;39;20040;-68
2023/04/30 09:44:47;;;;;;;7.32;6.63;;;;;;;21.21;41.36;102075.91;3593215;39;20043;-68
2023/04/30 09:47:19;;;;;;;8.80;7.28;;;;;;;21.14;43.72;102070.13;3595273;39;20405;-67
2023/04/30 09:49:53;;;;;;;7.25;6.55;;;;;;;21.19;43.80;102067.00;3597721;39;20445;-67
2023/04/30 09:52:20;;;;;;;9.40;7.13;;;;;;;21.36;43.09;102068.28;3593127;39;20290;-67
2023/04/30 09:54:47;;;;;;;8.90;6.88;;;;;;;20.70;42.46;101961.91;3594626;39;20073;-67
2023/04/30 09:57:14;;;;;;;7.45;6.75;;;;;;;20.58;41.89;101969.28;3595351;39;20056;-67
2023/04/30 09:59:46;;;;;;;7.10;6.35;;;;;;;21.06;42.64;102073.53;3596931;39;20051;-67
2023/04/30 10:02:16;;;;;;;7.50;6.57;;;;;;;21.08;42.41;102079.72;3593149;39;20074;-67
2023/04/30 10:04:47;;;;;;;7.22;6.18;;;;;;;20.90;42.22;102055.81;3595710;39;20047;-67
2023/04/30 10:07:21;;;;;;;7.72;6.45;;;;;;;20.97;42.11;102071.59;3595181;39;20476;-67
2023/04/30 10:10:02;;;;;;;7.28;6.07;;;;;;;20.89;42.26;102065.03;3594715;39;20060;-67
2023/04/30 10:12:55;;;;;;;7.18;5.82;;;;;;;20.83;43.18;102066.41;3596432;39;20056;-67
2023/04/30 10:15:35;;;;;;;7.60;6.68;;;;;;;20.53;42.20;102050.78;3592930;39;20070;-66
2023/04/30 10:18:13;;;;;;;7.20;6.22;;;;;;;20.51;43.72;102053.63;3589265;39;20060;-66
2023/04/30 10:20:41;;;;;;;6.82;6.22;;;;;;;20.34;43.16;102021.41;3595466;39;20066;-67
2023/04/30 10:23:07;;;;;;;6.97;6.18;;;;;;;20.38;42.74;102056.50;3587086;39;20064;-67
2023/04/30 10:25:33;;;;;;;8.18;6.53;;;;;;;20.45;43.22;102050.53;3597292;39;20057;-69
2023/04/30 10:27:59;;;;;;;6.40;5.75;;;;;;;20.74;43.56;102045.34;3594382;39;20048;-68
2023/04/30 10:30:25;;;;;;;6.60;5.60;;;;;;;21.02;42.15;102050.16;3595807;39;20068;-67
2023/04/30 10:33:27;;;;;;;7.43;5.82;;;;;;;21.15;42.38;102033.56;3596253;39;20048;-67
2023/04/30 10:36:07;;;;;;;6.97;5.90;;;;;;;21.36;40.82;102058.19;3594904;39;20056;-67
2023/04/30 10:38:36;;;;;;;6.85;6.07;;;;;;;21.47;41.40;102038.97;3594747;39;20080;-67
2023/04/30 10:41:06;;;;;;;7.00;6.28;;;;;;;21.46;41.43;102031.75;3594481;39;20060;-68
2023/04/30 10:43:35;;;;;;;5.85;5.35;;;;;;;21.59;40.43;102027.94;3594344;39;20099;-67
2023/04/30 10:46:02;;;;;;;6.13;5.53;;;;;;;21.22;39.13;101950.00;3596886;39;20051;-67
2023/04/30 10:48:30;;;;;;;8.55;7.75;;;;;;;21.74;39.64;102035.63;3594287;39;20048;-68
2023/04/30 10:50:58;;;;;;;6.65;6.05;;;;;;;22.01;40.51;102024.06;3594760;39;20120;-68
2023/04/30 10:53:26;;;;;;;5.32;4.82;;;;;;;21.99;39.73;101974.03;3594586;39;20398;-68
2023/04/30 10:56:07;;;;;;;5.10;4.60;;;;;;;22.42;38.53;102021.25;3594499;39;20118;-68
2023/04/30 10:58:36;;;;;;;5.72;5.22;;;;;;;21.68;37.45;101898.47;3597089;39;20048;-67
2023/04/30 11:01:04;;;;;;;6.25;5.55;;;;;;;21.74;37.35;101925.28;3595854;39;20043;-67
2023/04/30 11:03:34;;;;;;;6.47;5.22;;;;;;;22.33;37.32;102003.81;3589715;40;20318;-68
2023/04/30 11:06:07;;;;;;;5.20;4.22;;;;;;;22.26;37.18;102008.09;3595499;39;20055;-67
2023/04/30 11:08:36;;;;;;;7.05;4.75;;;;;;;22.54;37.95;102005.53;3596895;39;20390;-67
2023/04/30 11:11:04;;;;;;;5.65;5.15;;;;;;;22.78;37.79;101994.16;3595482;39;20047;-67
2023/04/30 11:13:44;;;;;;;5.25;4.75;;;;;;;22.97;37.31;102004.25;3596787;39;20051;-67
2023/04/30 11:16:10;;;;;;;6.55;4.82;;;;;;;22.98;35.41;101970.31;3597114;39;20102;-67
2023/04/30 11:18:45;;;;;;;5.38;4.68;;;;;;;23.09;35.54;102001.19;3596547;39;20064;-66
2023/04/30 11:21:12;;;;;;;5.28;4.75;;;;;;;22.24;36.06;101864.97;3596568;39;20353;-67
2023/04/30 11:23:42;;;;;;;5.15;4.57;;;;;;;23.04;35.81;101991.66;3598267;39;20059;-66
2023/04/30 11:26:09;;;;;;;5.40;4.40;;;;;;;22.94;34.86;101981.59;3597419;39;20405;-67
2023/04/30 11:28:37;;;;;;;4.63;4.13;;;;;;;22.74;35.50;101979.88;3595438;39;20055;-67